createdAt,value
2023-03-17T00:01:18.881Z,2.70
2023-03-17T00:03:47.600Z,2.55
2023-03-17T00:06:17.530Z,3.22
2023-03-17T00:08:46.309Z,2.20
2023-03-17T00:11:16.003Z,2.50
2023-03-17T00:13:44.551Z,1.80
2023-03-17T00:16:17.044Z,2.33
2023-03-17T00:18:44.680Z,2.60
2023-03-17T00:21:16.287Z,2.33
2023-03-17T00:23:49.593Z,2.45
2023-03-17T00:26:16.643Z,2.40
2023-03-17T00:28:43.442Z,2.67
2023-03-17T00:31:16.755Z,2.47
2023-03-17T00:33:45.285Z,2.13
2023-03-17T00:36:18.486Z,2.13
2023-03-17T00:38:46.001Z,2.38
2023-03-17T00:41:13.087Z,2.15
2023-03-17T00:43:40.687Z,2.20
2023-03-17T00:46:14.751Z,2.38
2023-03-17T00:48:45.429Z,2.50
2023-03-17T00:51:12.945Z,2.20
2023-03-17T00:53:39.814Z,2.60
2023-03-17T00:56:21.124Z,2.28
2023-03-17T00:58:48.869Z,2.13
2023-03-17T01:01:16.101Z,2.33
2023-03-17T01:03:42.965Z,1.90
2023-03-17T01:06:12.942Z,2.15
2023-03-17T01:08:41.062Z,2.10
2023-03-17T01:11:14.830Z,2.30
2023-03-17T01:13:41.732Z,2.60
2023-03-17T01:16:12.841Z,2.40
2023-03-17T01:18:39.942Z,2.33
2023-03-17T01:21:07.888Z,1.98
2023-03-17T01:23:34.700Z,2.40
2023-03-17T01:26:01.614Z,2.17
2023-03-17T01:28:28.338Z,1.90
2023-03-17T01:30:55.438Z,2.50
2023-03-17T01:33:22.235Z,2.33
2023-03-17T01:35:50.661Z,1.95
2023-03-17T01:38:17.538Z,2.50
2023-03-17T01:40:49.803Z,2.05
2023-03-17T01:43:25.689Z,2.40
2023-03-17T01:46:30.914Z,2.00
2023-03-17T01:49:22.586Z,2.47
2023-03-17T01:51:54.806Z,2.28
2023-03-17T01:54:34.700Z,2.42
2023-03-17T01:57:23.564Z,2.45
2023-03-17T01:59:54.311Z,1.67
2023-03-17T02:02:35.419Z,2.00
2023-03-17T02:05:03.854Z,1.75
2023-03-17T02:07:31.354Z,2.45
2023-03-17T02:09:58.870Z,2.55
2023-03-17T02:12:27.747Z,2.15
2023-03-17T02:14:54.717Z,2.22
2023-03-17T02:17:23.624Z,3.10
2023-03-17T02:19:50.413Z,2.10
2023-03-17T02:22:18.260Z,2.40
2023-03-17T02:24:55.746Z,2.10
2023-03-17T02:27:29.657Z,1.98
2023-03-17T02:29:56.820Z,2.15
2023-03-17T02:32:23.786Z,2.40
2023-03-17T02:34:50.955Z,2.10
2023-03-17T02:37:19.169Z,2.08
2023-03-17T02:39:46.554Z,2.00
2023-03-17T02:42:13.939Z,2.20
2023-03-17T02:44:40.601Z,1.80
2023-03-17T02:47:08.367Z,2.13
2023-03-17T02:49:36.658Z,2.28
2023-03-17T02:52:03.817Z,2.00
2023-03-17T02:54:30.714Z,1.85
2023-03-17T02:56:57.559Z,1.90
2023-03-17T02:59:24.234Z,2.35
2023-03-17T03:01:51.268Z,2.40
2023-03-17T03:04:19.928Z,2.70
2023-03-17T03:06:47.666Z,2.22
2023-03-17T03:09:15.356Z,1.83
2023-03-17T03:11:42.666Z,2.35
2023-03-17T03:14:09.891Z,2.40
2023-03-17T03:16:37.268Z,2.13
2023-03-17T03:19:04.238Z,2.35
2023-03-17T03:21:31.552Z,1.98
2023-03-17T03:23:58.280Z,1.90
2023-03-17T03:26:25.034Z,2.35
2023-03-17T03:28:51.998Z,2.10
2023-03-17T03:31:18.617Z,2.10
2023-03-17T03:33:45.767Z,2.10
2023-03-17T03:36:13.337Z,2.13
2023-03-17T03:38:39.981Z,1.88
2023-03-17T03:41:07.278Z,2.25
2023-03-17T03:43:34.847Z,2.40
2023-03-17T03:46:02.019Z,2.53
2023-03-17T03:48:28.738Z,2.42
2023-03-17T03:51:00.374Z,2.33
2023-03-17T03:53:27.929Z,2.22
2023-03-17T03:55:55.288Z,2.40
2023-03-17T03:58:22.498Z,2.47
2023-03-17T04:00:49.595Z,2.63
2023-03-17T04:03:16.530Z,2.42
2023-03-17T04:05:43.215Z,2.40
2023-03-17T04:08:11.114Z,2.20
2023-03-17T04:10:37.751Z,2.08
2023-03-17T04:13:04.415Z,2.15
2023-03-17T04:15:31.116Z,2.15
2023-03-17T04:17:57.754Z,2.90
2023-03-17T04:20:24.346Z,2.40
2023-03-17T04:22:51.412Z,2.65
2023-03-17T04:25:18.613Z,2.00
2023-03-17T04:27:45.290Z,2.35
2023-03-17T04:30:16.952Z,2.15
2023-03-17T04:32:44.900Z,1.88
2023-03-17T04:35:17.527Z,1.88
2023-03-17T04:37:44.406Z,2.20
2023-03-17T04:40:12.919Z,2.58
2023-03-17T04:42:40.478Z,2.10
2023-03-17T04:45:09.447Z,2.03
2023-03-17T04:47:36.118Z,2.03
2023-03-17T04:50:03.144Z,2.25
2023-03-17T04:52:29.953Z,1.70
2023-03-17T04:54:56.899Z,1.77
2023-03-17T04:57:24.469Z,1.77
2023-03-17T04:59:51.664Z,1.70
2023-03-17T05:02:20.953Z,1.80
2023-03-17T05:04:50.459Z,1.60
2023-03-17T05:07:17.089Z,1.38
2023-03-17T05:09:43.857Z,1.80
2023-03-17T05:12:10.843Z,1.58
2023-03-17T05:14:37.670Z,1.40
2023-03-17T05:17:04.409Z,1.50
2023-03-17T05:19:31.103Z,1.63
2023-03-17T05:21:57.852Z,1.40
2023-03-17T05:24:24.842Z,1.77
2023-03-17T05:26:51.510Z,2.03
2023-03-17T05:29:18.200Z,1.50
2023-03-17T05:31:45.005Z,1.55
2023-03-17T05:34:11.710Z,1.52
2023-03-17T05:36:38.389Z,1.70
2023-03-17T05:39:05.172Z,1.45
2023-03-17T05:41:31.970Z,1.40
2023-03-17T05:43:58.748Z,1.67
2023-03-17T05:46:26.416Z,1.40
2023-03-17T05:48:53.128Z,1.80
2023-03-17T05:51:20.555Z,1.50
2023-03-17T05:53:49.941Z,1.77
2023-03-17T05:56:16.535Z,1.73
2023-03-17T05:58:43.186Z,1.70
2023-03-17T06:01:10.174Z,2.28
2023-03-17T06:03:38.699Z,3.33
2023-03-17T06:06:06.181Z,2.92
2023-03-17T06:08:32.845Z,2.00
2023-03-17T06:10:59.467Z,1.98
2023-03-17T06:13:26.122Z,2.38
2023-03-17T06:15:52.907Z,2.55
2023-03-17T06:18:19.914Z,2.63
2023-03-17T06:20:46.903Z,2.05
2023-03-17T06:23:13.826Z,2.70
2023-03-17T06:25:40.484Z,2.72
2023-03-17T06:28:07.227Z,3.22
2023-03-17T06:30:35.217Z,2.97
2023-03-17T06:33:03.294Z,2.55
2023-03-17T06:35:31.053Z,2.75
2023-03-17T06:37:58.080Z,2.38
2023-03-17T06:40:24.815Z,2.08
2023-03-17T06:42:51.541Z,2.20
2023-03-17T06:45:18.455Z,2.30
2023-03-17T06:47:45.060Z,2.40
2023-03-17T06:50:12.282Z,2.15
2023-03-17T06:52:40.074Z,2.97
2023-03-17T06:55:08.498Z,4.10
2023-03-17T06:57:35.800Z,3.53
2023-03-17T07:00:05.069Z,2.90
2023-03-17T07:02:32.346Z,3.25
2023-03-17T07:04:59.816Z,3.80
2023-03-17T07:07:27.886Z,2.95
2023-03-17T07:09:54.638Z,2.70
2023-03-17T07:12:21.826Z,2.42
2023-03-17T07:14:48.483Z,2.13
2023-03-17T07:17:15.768Z,2.20
2023-03-17T07:19:42.902Z,4.25
2023-03-17T07:22:13.237Z,3.38
2023-03-17T07:27:08.769Z,4.90
2023-03-17T07:29:35.963Z,4.72
2023-03-17T07:32:04.072Z,5.35
2023-03-17T07:34:30.698Z,5.75
2023-03-17T07:36:57.311Z,5.10
2023-03-17T07:39:23.908Z,4.28
2023-03-17T07:41:55.038Z,3.70
2023-03-17T07:44:23.100Z,4.25
2023-03-17T07:46:51.455Z,3.88
2023-03-17T07:49:20.921Z,4.40
2023-03-17T07:51:54.372Z,5.55
2023-03-17T07:54:21.143Z,6.13
2023-03-17T07:56:48.581Z,9.52
2023-03-17T07:59:15.281Z,8.70
2023-03-17T08:01:41.975Z,7.43
2023-03-17T08:04:10.842Z,6.53
2023-03-17T08:06:38.472Z,5.88
2023-03-17T08:09:05.316Z,5.85
2023-03-17T08:11:32.061Z,6.10
2023-03-17T08:13:59.957Z,4.85
2023-03-17T08:16:26.730Z,5.70
2023-03-17T08:18:53.459Z,4.68
2023-03-17T08:21:20.224Z,5.90
2023-03-17T08:23:49.791Z,4.85
2023-03-17T08:26:16.682Z,5.40
2023-03-17T08:28:43.602Z,5.18
2023-03-17T08:31:17.144Z,5.45
2023-03-17T08:33:50.459Z,5.63
2023-03-17T08:36:18.481Z,5.25
2023-03-17T08:38:48.246Z,4.88
2023-03-17T08:41:18.230Z,4.30
2023-03-17T08:43:46.296Z,4.35
2023-03-17T08:46:22.573Z,5.13
2023-03-17T08:48:51.588Z,5.15
2023-03-17T08:51:22.089Z,4.28
2023-03-17T08:53:51.265Z,3.70
2023-03-17T08:56:17.925Z,4.18
2023-03-17T08:58:44.644Z,3.70
2023-03-17T09:01:11.735Z,3.70
2023-03-17T09:03:39.443Z,3.83
2023-03-17T09:06:07.690Z,4.38
2023-03-17T09:08:35.543Z,4.38
2023-03-17T09:11:05.278Z,4.25
2023-03-17T09:13:33.254Z,3.70
2023-03-17T09:16:01.335Z,4.55
2023-03-17T09:18:28.184Z,3.88
2023-03-17T09:20:54.796Z,3.67
2023-03-17T09:23:23.239Z,4.45
2023-03-17T09:25:49.931Z,3.78
2023-03-17T09:28:17.358Z,4.07
2023-03-17T09:30:44.337Z,3.85
2023-03-17T09:33:12.294Z,4.05
2023-03-17T09:35:39.972Z,4.25
2023-03-17T09:38:07.789Z,3.78
2023-03-17T09:40:43.956Z,4.07
2023-03-17T09:43:22.606Z,4.60
2023-03-17T09:45:49.217Z,4.13
2023-03-17T09:48:34.147Z,4.03
2023-03-17T09:51:10.170Z,3.88
2023-03-17T09:53:51.332Z,3.45
2023-03-17T09:56:19.924Z,3.65
2023-03-17T09:58:59.777Z,4.18
2023-03-17T10:01:26.586Z,3.33
2023-03-17T10:03:53.572Z,3.40
2023-03-17T10:06:46.810Z,3.25
2023-03-17T10:09:13.722Z,3.55
2023-03-17T10:11:52.604Z,3.42
2023-03-17T10:14:49.488Z,3.10
2023-03-17T10:17:32.083Z,5.28
2023-03-17T10:20:18.982Z,5.38
2023-03-17T10:22:52.773Z,3.75
2023-03-17T10:25:22.846Z,3.90
2023-03-17T10:27:57.983Z,4.13
2023-03-17T10:30:24.930Z,4.10
2023-03-17T10:32:53.993Z,3.70
2023-03-17T10:35:22.897Z,3.53
2023-03-17T10:37:49.623Z,3.78
2023-03-17T10:40:24.441Z,4.18
2023-03-17T10:43:01.642Z,3.83
2023-03-17T10:45:31.391Z,2.92
2023-03-17T10:47:59.869Z,2.90
2023-03-17T10:50:35.755Z,3.08
2023-03-17T10:53:18.403Z,3.25
2023-03-17T10:55:50.936Z,2.83
2023-03-17T10:58:18.672Z,2.88
2023-03-17T11:00:56.840Z,2.70
2023-03-17T11:03:27.324Z,2.90
2023-03-17T11:06:07.060Z,2.88
2023-03-17T11:08:39.152Z,2.97
2023-03-17T11:11:26.681Z,2.55
2023-03-17T11:14:17.076Z,2.72
2023-03-17T11:19:45.081Z,3.30
2023-03-17T11:22:20.753Z,3.17
2023-03-17T11:25:05.132Z,2.80
2023-03-17T11:27:35.939Z,2.40
2023-03-17T11:30:23.953Z,2.75
2023-03-17T11:33:17.984Z,2.60
2023-03-17T11:36:11.892Z,2.80
2023-03-17T11:39:08.842Z,2.95
2023-03-17T11:42:01.659Z,2.70
2023-03-17T11:44:54.115Z,3.33
2023-03-17T11:47:36.341Z,2.38
2023-03-17T11:50:23.242Z,2.45
2023-03-17T11:53:17.122Z,2.45
2023-03-17T11:55:51.662Z,2.33
2023-03-17T11:58:28.649Z,2.08
2023-03-17T12:01:00.376Z,2.75
2023-03-17T12:03:48.654Z,2.35
2023-03-17T12:06:28.120Z,2.60
2023-03-17T12:08:59.773Z,2.13
2023-03-17T12:11:29.742Z,2.83
2023-03-17T12:14:05.852Z,2.97
2023-03-17T12:16:41.660Z,2.60
2023-03-17T12:19:11.468Z,2.88
2023-03-17T12:21:52.912Z,2.47
2023-03-17T12:24:25.891Z,2.80
2023-03-17T12:27:01.832Z,2.20
2023-03-17T12:30:03.528Z,2.28
2023-03-17T12:32:39.509Z,2.20
2023-03-17T12:35:26.285Z,2.20
2023-03-17T12:37:54.164Z,2.63
2023-03-17T12:40:26.278Z,2.33
2023-03-17T12:43:29.079Z,2.88
2023-03-17T12:46:32.141Z,1.65
2023-03-17T12:49:45.189Z,1.52
2023-03-17T12:52:21.111Z,1.80
2023-03-17T12:54:51.972Z,1.88
2023-03-17T12:57:22.094Z,1.45
2023-03-17T12:59:57.417Z,1.55
2023-03-17T13:02:35.256Z,1.35
2023-03-17T13:05:09.163Z,1.60
2023-03-17T13:07:54.745Z,1.48
2023-03-17T13:10:43.552Z,1.55
2023-03-17T13:13:36.494Z,1.65
2023-03-17T13:16:05.766Z,2.25
2023-03-17T13:18:35.527Z,1.83
2023-03-17T13:21:02.215Z,2.03
2023-03-17T13:23:57.866Z,2.00
2023-03-17T13:27:13.903Z,2.80
2023-03-17T13:29:46.132Z,1.55
2023-03-17T13:32:15.787Z,2.03
2023-03-17T13:34:48.945Z,1.60
2023-03-17T13:37:25.661Z,1.77
2023-03-17T13:39:56.394Z,1.52
2023-03-17T13:42:54.621Z,1.50
2023-03-17T13:45:40.572Z,1.25
2023-03-17T13:48:33.026Z,1.05
2023-03-17T13:51:07.540Z,1.30
2023-03-17T13:53:38.848Z,1.15
2023-03-17T13:56:19.091Z,1.23
2023-03-17T13:59:20.226Z,1.63
2023-03-17T14:01:57.785Z,8.38
2023-03-17T14:04:50.114Z,16.52
2023-03-17T14:07:21.201Z,9.32
2023-03-17T14:09:53.339Z,3.00
2023-03-17T14:12:28.582Z,1.90
2023-03-17T14:15:07.646Z,1.40
2023-03-17T14:17:56.193Z,1.20
2023-03-17T14:20:27.000Z,1.23
2023-03-17T14:23:00.492Z,1.30
2023-03-17T14:25:35.642Z,1.23
2023-03-17T14:28:09.376Z,1.10
2023-03-17T14:30:37.883Z,1.48
2023-03-17T14:33:23.319Z,1.40
2023-03-17T14:35:52.750Z,1.40
2023-03-17T14:38:22.808Z,2.13
2023-03-17T14:40:51.511Z,1.83
2023-03-17T14:43:18.208Z,2.90
2023-03-17T14:45:53.704Z,3.40
2023-03-17T14:48:26.457Z,4.88
2023-03-17T14:51:05.471Z,2.47
2023-03-17T14:53:39.421Z,1.50
2023-03-17T14:56:06.561Z,1.50
2023-03-17T14:58:44.791Z,2.35
2023-03-17T15:01:35.147Z,4.13
2023-03-17T15:06:37.402Z,2.10
2023-03-17T15:09:18.313Z,1.77
2023-03-17T15:11:45.786Z,2.15
2023-03-17T15:14:38.880Z,2.60
2023-03-17T15:17:15.646Z,3.15
2023-03-17T15:19:51.345Z,0.95
2023-03-17T15:22:20.864Z,1.08
2023-03-17T15:25:02.694Z,0.88
2023-03-17T15:27:31.211Z,0.85
2023-03-17T15:29:58.243Z,1.90
2023-03-17T15:32:26.811Z,1.35
2023-03-17T15:34:56.523Z,1.27
2023-03-17T15:37:29.524Z,1.35
2023-03-17T15:39:56.760Z,1.20
2023-03-17T15:42:26.414Z,1.00
2023-03-17T15:44:53.733Z,1.67
2023-03-17T15:47:22.370Z,1.20
2023-03-17T15:49:50.917Z,0.80
2023-03-17T15:52:25.123Z,1.10
2023-03-17T15:54:59.240Z,2.72
2023-03-17T15:57:28.904Z,1.98
2023-03-17T15:59:55.639Z,1.13
2023-03-17T16:02:29.206Z,1.77
2023-03-17T16:04:57.105Z,1.50
2023-03-17T16:07:24.858Z,1.58
2023-03-17T16:09:51.842Z,1.00
2023-03-17T16:12:18.528Z,2.28
2023-03-17T16:14:45.633Z,0.88
2023-03-17T16:17:24.286Z,1.00
2023-03-17T16:19:53.085Z,1.27
2023-03-17T16:22:41.760Z,1.42
2023-03-17T16:25:21.568Z,1.85
2023-03-17T16:27:49.294Z,2.65
2023-03-17T16:30:20.500Z,1.27
2023-03-17T16:32:47.971Z,1.55
2023-03-17T16:35:17.161Z,1.35
2023-03-17T16:37:43.856Z,1.50
2023-03-17T16:40:25.911Z,1.10
2023-03-17T16:42:53.380Z,1.38
2023-03-17T16:45:27.910Z,0.90
2023-03-17T16:47:56.152Z,1.83
2023-03-17T16:50:25.257Z,1.95
2023-03-17T16:52:52.190Z,2.97
2023-03-17T16:55:20.568Z,10.50
2023-03-17T16:57:50.384Z,21.60
2023-03-17T17:00:27.097Z,9.57
2023-03-17T17:02:54.476Z,5.55
2023-03-17T17:05:27.587Z,5.55
2023-03-17T17:07:56.662Z,2.55
2023-03-17T17:10:25.287Z,2.88
2023-03-17T17:12:52.318Z,3.70
2023-03-17T17:15:20.461Z,4.20
2023-03-17T17:17:50.923Z,3.80
2023-03-17T17:20:23.931Z,3.83
2023-03-17T17:22:51.021Z,5.25
2023-03-17T17:25:18.173Z,5.20
2023-03-17T17:27:46.628Z,5.07
2023-03-17T17:30:16.514Z,6.13
2023-03-17T17:32:43.628Z,5.00
2023-03-17T17:35:11.732Z,5.80
2023-03-17T17:37:38.823Z,6.00
2023-03-17T17:40:08.473Z,6.10
2023-03-17T17:42:36.044Z,5.90
2023-03-17T17:45:02.777Z,6.57
2023-03-17T17:47:32.237Z,4.45
2023-03-17T17:49:59.834Z,4.10
2023-03-17T17:52:26.528Z,4.35
2023-03-17T17:54:53.189Z,4.20
2023-03-17T17:57:19.838Z,5.18
2023-03-17T17:59:46.512Z,5.35
2023-03-17T18:02:13.532Z,5.75
2023-03-17T18:04:40.398Z,4.93
2023-03-17T18:07:07.081Z,6.57
2023-03-17T18:09:33.734Z,4.18
2023-03-17T18:12:00.548Z,4.85
2023-03-17T18:14:27.707Z,3.78
2023-03-17T18:16:54.375Z,4.38
2023-03-17T18:19:21.151Z,4.30
2023-03-17T18:21:47.818Z,4.15
2023-03-17T18:24:14.835Z,4.55
2023-03-17T18:26:41.713Z,4.25
2023-03-17T18:29:09.254Z,4.38
2023-03-17T18:31:48.566Z,4.70
2023-03-17T18:34:27.011Z,3.30
2023-03-17T18:36:55.152Z,3.45
2023-03-17T18:39:21.802Z,2.08
2023-03-17T18:41:48.927Z,3.17
2023-03-17T18:44:16.277Z,3.65
2023-03-17T18:46:43.763Z,3.42
2023-03-17T18:49:10.522Z,5.25
2023-03-17T18:51:37.230Z,4.93
2023-03-17T18:54:05.642Z,5.13
2023-03-17T18:56:32.405Z,3.50
2023-03-17T18:58:59.701Z,3.00
2023-03-17T19:01:27.259Z,2.75
2023-03-17T19:03:54.113Z,2.25
2023-03-17T19:06:23.120Z,2.00
2023-03-17T19:08:50.504Z,1.70
2023-03-17T19:11:20.908Z,1.98
2023-03-17T19:13:47.710Z,2.80
2023-03-17T19:16:15.226Z,2.50
2023-03-17T19:18:42.625Z,2.50
2023-03-17T19:21:09.776Z,2.90
2023-03-17T19:23:38.199Z,3.22
2023-03-17T19:26:05.681Z,2.40
2023-03-17T19:28:32.850Z,2.58
2023-03-17T19:30:59.639Z,2.35
2023-03-17T19:33:26.456Z,4.20
2023-03-17T19:35:58.526Z,2.05
2023-03-17T19:38:27.030Z,2.75
2023-03-17T19:40:54.465Z,2.28
2023-03-17T19:43:39.138Z,2.60
2023-03-17T19:46:07.913Z,3.30
2023-03-17T19:48:36.361Z,2.88
2023-03-17T19:51:03.182Z,2.47
2023-03-17T19:53:29.878Z,2.80
2023-03-17T19:55:56.924Z,2.00
2023-03-17T19:58:24.022Z,2.20
2023-03-17T20:00:51.370Z,2.10
2023-03-17T20:03:18.290Z,1.83
2023-03-17T20:05:46.204Z,1.77
2023-03-17T20:08:12.912Z,1.20
2023-03-17T20:10:39.579Z,1.10
2023-03-17T20:13:06.412Z,1.70
2023-03-17T20:15:33.666Z,1.23
2023-03-17T20:18:00.739Z,1.40
2023-03-17T20:20:27.674Z,1.40
2023-03-17T20:22:54.307Z,1.55
2023-03-17T20:25:21.838Z,1.23
2023-03-17T20:27:48.531Z,1.10
2023-03-17T20:30:16.084Z,1.17
2023-03-17T20:32:44.159Z,1.45
2023-03-17T20:35:11.350Z,1.95
2023-03-17T20:37:38.669Z,2.40
2023-03-17T20:40:08.323Z,2.03
2023-03-17T20:42:35.211Z,2.05
2023-03-17T20:45:03.432Z,1.90
2023-03-17T20:47:30.688Z,2.22
2023-03-17T20:49:58.880Z,1.48
2023-03-17T20:52:29.518Z,1.40
2023-03-17T20:54:56.737Z,1.98
2023-03-17T20:57:23.391Z,1.65
2023-03-17T20:59:51.313Z,2.35
2023-03-17T21:02:18.926Z,2.35
2023-03-17T21:04:48.140Z,2.70
2023-03-17T21:07:19.983Z,2.33
2023-03-17T21:09:47.199Z,3.10
2023-03-17T21:12:19.412Z,3.03
2023-03-17T21:14:48.036Z,2.63
2023-03-17T21:17:16.304Z,2.42
2023-03-17T21:19:43.334Z,2.28
2023-03-17T21:22:10.701Z,2.72
2023-03-17T21:24:38.387Z,2.15
2023-03-17T21:27:09.504Z,2.70
2023-03-17T21:29:36.170Z,2.47
2023-03-17T21:32:04.148Z,2.35
2023-03-17T21:34:32.296Z,1.85
2023-03-17T21:36:59.883Z,1.50
2023-03-17T21:39:29.511Z,3.28
2023-03-17T21:41:57.493Z,3.30
2023-03-17T21:44:24.477Z,4.80
2023-03-17T21:46:51.194Z,4.32
2023-03-17T21:49:18.713Z,2.88
2023-03-17T21:51:46.766Z,2.08
2023-03-17T21:54:14.295Z,1.88
2023-03-17T21:56:41.486Z,3.45
2023-03-17T21:59:11.012Z,1.48
2023-03-17T22:01:39.586Z,1.52
2023-03-17T22:04:06.973Z,1.40
2023-03-17T22:06:34.073Z,3.47
2023-03-17T22:09:01.161Z,1.80
2023-03-17T22:11:27.869Z,1.95
2023-03-17T22:13:54.510Z,2.08
2023-03-17T22:16:21.635Z,2.60
2023-03-17T22:18:48.583Z,1.90
2023-03-17T22:21:15.439Z,2.03
2023-03-17T22:23:42.498Z,2.30
2023-03-17T22:26:13.239Z,1.40
2023-03-17T22:28:41.023Z,1.45
2023-03-17T22:31:23.734Z,1.30
2023-03-17T22:33:53.190Z,1.50
2023-03-17T22:36:19.910Z,1.57
2023-03-17T22:38:46.964Z,1.20
2023-03-17T22:41:16.989Z,1.73
2023-03-17T22:43:44.415Z,1.83
2023-03-17T22:46:11.851Z,2.10
2023-03-17T22:48:40.097Z,1.80
2023-03-17T22:51:10.547Z,1.73
2023-03-17T22:53:38.379Z,2.00
2023-03-17T22:56:06.188Z,1.80
2023-03-17T22:58:33.285Z,1.90
2023-03-17T23:01:00.319Z,2.30
2023-03-17T23:03:27.810Z,1.67
2023-03-17T23:05:59.677Z,1.80
2023-03-17T23:08:29.301Z,1.60
2023-03-17T23:10:57.323Z,1.85
2023-03-17T23:13:24.238Z,1.20
2023-03-17T23:15:51.302Z,2.40
2023-03-17T23:18:18.141Z,1.77
2023-03-17T23:20:45.744Z,2.13
2023-03-17T23:23:12.795Z,1.83
2023-03-17T23:25:39.549Z,1.60
2023-03-17T23:28:07.563Z,1.58
2023-03-17T23:30:35.706Z,2.00
2023-03-17T23:33:04.632Z,1.75
2023-03-17T23:35:31.825Z,1.95
2023-03-17T23:37:58.499Z,1.60
2023-03-17T23:40:25.169Z,1.60
2023-03-17T23:42:54.345Z,1.88
2023-03-17T23:45:23.113Z,1.40
2023-03-17T23:47:52.062Z,1.80
2023-03-17T23:50:20.835Z,1.77
2023-03-17T23:52:48.100Z,1.30
2023-03-17T23:55:17.446Z,1.50
2023-03-17T23:57:45.256Z,1.35
